Bulldozer — WDD5480 — position and weather

sailwx.info

Track history (hours):
 
Tides and Currents Weather Stations Pressure Air Temp Water Temp Dewpoint Dewpoint Depression Visibility Wind Speed Wind Dir Waves Ship Positions

Bulldozer

Owner: Connecticut Dredge Corp., Inc., Clinton, CT. More information available from US FCC via Universal Licensing System and Coast Guard Vessel Documentation Center.

Last reported at 2018-Feb-17 15:22 UTC. Time now 2018-Feb-18 03:39 UTC.
Position N 40°48' W 073°47'.

Length 18 m; draft 2.5 m.

Type: Towing. MMSI: 367158980.

Date/timePositionNaut miles runAvg speedWind from/ knotsBaromVisibWave heightAir tempDewpointWater temp
2018-Feb-17 15:22N 40°48' W 073°47'2 6.8
2018-Feb-17 15:00N 40°48' W 073°51'4 6.9
2018-Feb-17 14:27N 40°47' W 073°55'4 8.3
2018-Feb-17 14:00N 40°44' W 073°58'4 7.9
2018-Feb-17 13:30N 40°41' W 074°02'3 6.5
2018-Feb-17 13:00N 40°39' W 074°05'3 6.0
2018-Feb-17 12:29N 40°39' W 074°09'3 6.3
2018-Feb-17 12:00N 40°41' W 074°08'2 4.6
2018-Feb-17 11:30N 40°44' W 074°07'1 1.2
2018-Feb-17 11:00N 40°44' W 074°07'0 0.0
2018-Feb-17 10:30N 40°44' W 074°07'0 0.0
2018-Feb-17 10:00N 40°44' W 074°07'0 0.0
2018-Feb-17 09:30N 40°44' W 074°07'0 0.0
2018-Feb-17 09:00N 40°44' W 074°07'0 0.0
2018-Feb-17 08:30N 40°44' W 074°07'0 0.0
2018-Feb-17 08:00N 40°44' W 074°07'0 0.0
2018-Feb-17 07:30N 40°44' W 074°07'0 0.0
2018-Feb-17 07:00N 40°44' W 074°07'0 0.0
2018-Feb-17 06:30N 40°44' W 074°07'0 0.0
2018-Feb-17 06:00N 40°44' W 074°07'0 0.0
2018-Feb-17 05:30N 40°44' W 074°07'0 0.0
2018-Feb-17 05:00N 40°44' W 074°07'0 0.0
2018-Feb-17 04:30N 40°44' W 074°07'0 0.0
2018-Feb-17 04:00N 40°44' W 074°07'0 0.0
2018-Feb-17 03:30N 40°44' W 074°07'0 0.0
2018-Feb-17 03:00N 40°44' W 074°07'0 0.0
2018-Feb-17 02:30N 40°44' W 074°07'0 0.0
2018-Feb-17 01:45N 40°44' W 074°07'0 0.0
2018-Feb-17 01:30N 40°44' W 074°07'0 0.0
2018-Feb-17 01:00N 40°44' W 074°07'0 0.3
2018-Feb-17 00:30N 40°44' W 074°07'1 2.0
2018-Feb-17 00:00N 40°43' W 074°07'2 4.6
2018-Feb-16 23:30N 40°41' W 074°08'3 5.1
2018-Feb-16 23:00N 40°39' W 074°08'4 7.3
2018-Feb-16 22:30N 40°40' W 074°03'3 7.1
2018-Feb-16 22:00N 40°42' W 074°00'3 5.4
2018-Feb-16 21:30N 40°45' W 073°58'4 7.4
2018-Feb-16 20:55N 40°48' W 073°54'3 6.5
2018-Feb-16 20:30N 40°48' W 073°51'  
Track history (hours):
 
Tides and Currents Weather Stations Pressure Air Temp Water Temp Dewpoint Dewpoint Depression Visibility Wind Speed Wind Dir Waves Ship Positions

Bulldozer

Owner: Connecticut Dredge Corp., Inc., Clinton, CT. More information available from US FCC via Universal Licensing System and Coast Guard Vessel Documentation Center.

Last reported at 2018-Feb-17 15:22 UTC. Time now 2018-Feb-18 03:39 UTC.
Position N 40°48' W 073°47'.

Length 18 m; draft 2.5 m.

Type: Towing. MMSI: 367158980.

Date/timePositionNaut miles runAvg speedWind from/ knotsBaromVisibWave heightAir tempDewpointWater temp
2018-Feb-17 15:22N 40°48' W 073°47'2 6.8
2018-Feb-17 15:00N 40°48' W 073°51'4 6.9
2018-Feb-17 14:27N 40°47' W 073°55'4 8.3
2018-Feb-17 14:00N 40°44' W 073°58'4 7.9
2018-Feb-17 13:30N 40°41' W 074°02'3 6.5
2018-Feb-17 13:00N 40°39' W 074°05'3 6.0
2018-Feb-17 12:29N 40°39' W 074°09'3 6.3
2018-Feb-17 12:00N 40°41' W 074°08'2 4.6
2018-Feb-17 11:30N 40°44' W 074°07'1 1.2
2018-Feb-17 11:00N 40°44' W 074°07'0 0.0
2018-Feb-17 10:30N 40°44' W 074°07'0 0.0
2018-Feb-17 10:00N 40°44' W 074°07'0 0.0
2018-Feb-17 09:30N 40°44' W 074°07'0 0.0
2018-Feb-17 09:00N 40°44' W 074°07'0 0.0
2018-Feb-17 08:30N 40°44' W 074°07'0 0.0
2018-Feb-17 08:00N 40°44' W 074°07'0 0.0
2018-Feb-17 07:30N 40°44' W 074°07'0 0.0
2018-Feb-17 07:00N 40°44' W 074°07'0 0.0
2018-Feb-17 06:30N 40°44' W 074°07'0 0.0
2018-Feb-17 06:00N 40°44' W 074°07'0 0.0
2018-Feb-17 05:30N 40°44' W 074°07'0 0.0
2018-Feb-17 05:00N 40°44' W 074°07'0 0.0
2018-Feb-17 04:30N 40°44' W 074°07'0 0.0
2018-Feb-17 04:00N 40°44' W 074°07'0 0.0
2018-Feb-17 03:30N 40°44' W 074°07'0 0.0
2018-Feb-17 03:00N 40°44' W 074°07'0 0.0
2018-Feb-17 02:30N 40°44' W 074°07'0 0.0
2018-Feb-17 01:45N 40°44' W 074°07'0 0.0
2018-Feb-17 01:30N 40°44' W 074°07'0 0.0
2018-Feb-17 01:00N 40°44' W 074°07'0 0.3
2018-Feb-17 00:30N 40°44' W 074°07'1 2.0
2018-Feb-17 00:00N 40°43' W 074°07'2 4.6
2018-Feb-16 23:30N 40°41' W 074°08'3 5.1
2018-Feb-16 23:00N 40°39' W 074°08'4 7.3
2018-Feb-16 22:30N 40°40' W 074°03'3 7.1
2018-Feb-16 22:00N 40°42' W 074°00'3 5.4
2018-Feb-16 21:30N 40°45' W 073°58'4 7.4
2018-Feb-16 20:55N 40°48' W 073°54'3 6.5
2018-Feb-16 20:30N 40°48' W 073°51'  

Dump ship's entire track history